Time;durP1;ratioP1;P1;durP2;ratioP2;P2;SDS_P1;SDS_P2;PMS_P1;PMS_P2;Temp;Humidity;BMP_temperature;BMP_pressure;BME280_temperature;BME280_humidity;BME280_pressure;Samples;Min_cycle;Max_cycle;Signal;HPM_P1;HPM_P2
2020/12/15 00:04:56;;;;;;;112.92;44.08;;;;;;;1.68;83.39;100806.21;5294708;54;1140435;-83
2020/12/15 00:10:02;;;;;;;109.30;47.53;;;;;;;1.63;83.58;100807.67;5256098;54;1140791;-83
2020/12/15 00:15:08;;;;;;;154.33;65.07;;;;;;;1.61;83.50;100811.23;5256753;54;1140407;-83
2020/12/15 00:20:13;;;;;;;123.80;50.47;;;;;;;1.55;83.82;100812.75;5257338;54;1140620;-83
2020/12/15 00:25:19;;;;;;;112.37;45.40;;;;;;;1.53;83.81;100819.80;5252923;54;1140316;-83
2020/12/15 00:30:26;;;;;;;102.90;44.63;;;;;;;1.58;83.82;100830.89;5281252;54;1140304;-83
2020/12/15 00:35:31;;;;;;;102.03;44.93;;;;;;;1.62;83.79;100830.73;5260568;54;1140590;-83
2020/12/15 00:40:37;;;;;;;112.00;47.93;;;;;;;1.52;83.77;100822.86;5289447;54;1140083;-83
2020/12/15 00:45:42;;;;;;;109.33;45.67;;;;;;;1.50;83.72;100823.36;5274535;54;1140336;-83
2020/12/15 00:50:48;;;;;;;88.40;39.90;;;;;;;1.51;83.73;100825.06;5250150;54;1140455;-83
2020/12/15 00:55:54;;;;;;;118.53;48.53;;;;;;;1.51;83.76;100826.36;5340199;55;1138338;-83
2020/12/15 01:00:59;;;;;;;108.03;46.30;;;;;;;1.46;83.78;100822.20;5246223;54;1140460;-83
2020/12/15 01:06:07;;;;;;;99.07;44.83;;;;;;;1.46;83.64;100823.06;5299132;54;1140294;-84
2020/12/15 01:11:13;;;;;;;116.83;43.10;;;;;;;1.44;83.55;100833.98;5316405;54;1138267;-83
2020/12/15 01:16:20;;;;;;;104.40;46.17;;;;;;;1.36;83.65;100844.69;5259351;54;1140557;-83
2020/12/15 01:21:32;;;;;;;111.10;47.87;;;;;;;1.29;83.73;100841.88;5296384;54;1140401;-83
2020/12/15 01:26:39;;;;;;;104.90;43.48;;;;;;;1.27;83.72;100839.78;5260205;54;1140702;-83
2020/12/15 01:31:45;;;;;;;94.27;42.73;;;;;;;1.28;83.81;100834.97;5255819;54;1140447;-83
2020/12/15 01:36:55;;;;;;;110.33;46.50;;;;;;;1.20;83.97;100833.09;5301130;54;1138214;-84
2020/12/15 01:42:03;;;;;;;105.60;47.67;;;;;;;1.22;83.95;100830.44;5258050;54;1140303;-84
2020/12/15 01:47:10;;;;;;;106.00;45.00;;;;;;;1.23;83.90;100825.14;5278712;54;1140447;-84
2020/12/15 01:52:16;;;;;;;100.13;45.93;;;;;;;1.21;83.94;100814.41;5316936;54;1140315;-84
2020/12/15 01:57:23;;;;;;;96.90;41.97;;;;;;;1.13;83.90;100794.27;5253818;54;1140370;-84
2020/12/15 02:02:31;;;;;;;99.90;46.63;;;;;;;1.15;83.93;100795.06;5299447;54;1138165;-84
2020/12/15 02:07:38;;;;;;;98.50;45.75;;;;;;;1.20;83.92;100791.86;5293719;54;1138373;-84
2020/12/15 02:12:44;;;;;;;114.57;49.57;;;;;;;1.18;83.92;100787.16;5258043;54;1138514;-84
2020/12/15 02:17:51;;;;;;;105.90;48.30;;;;;;;1.18;83.93;100784.09;5360495;55;21124;-84
2020/12/15 02:22:58;;;;;;;100.87;45.17;;;;;;;1.24;83.75;100790.38;5290376;54;1145949;-84
2020/12/15 02:28:05;;;;;;;105.23;44.63;;;;;;;1.24;83.71;100773.89;5276139;54;1140522;-84
2020/12/15 02:33:11;;;;;;;109.43;46.90;;;;;;;1.16;83.64;100758.55;5255052;54;1140383;-84
2020/12/15 02:38:19;;;;;;;100.37;47.00;;;;;;;1.13;83.53;100753.89;5278177;54;1140382;-84
2020/12/15 02:43:25;;;;;;;100.87;46.37;;;;;;;1.08;83.51;100744.08;5297207;54;1140458;-84
2020/12/15 02:48:32;;;;;;;106.20;48.27;;;;;;;1.02;83.85;100740.80;5256045;54;1140459;-84
2020/12/15 02:53:38;;;;;;;109.73;47.70;;;;;;;1.00;83.90;100747.81;5294358;54;1140644;-84
2020/12/15 02:58:43;;;;;;;90.03;41.73;;;;;;;1.02;83.72;100745.16;5253898;54;1140553;-84
2020/12/15 03:03:50;;;;;;;110.23;47.47;;;;;;;1.03;83.80;100747.72;5276888;54;1138232;-84
2020/12/15 03:09:01;;;;;;;97.27;45.58;;;;;;;1.00;83.82;100750.87;5253498;54;1140579;-84
2020/12/15 03:14:07;;;;;;;86.17;36.73;;;;;;;0.97;83.82;100747.06;5334605;54;1136382;-84
2020/12/15 03:19:13;;;;;;;109.37;48.10;;;;;;;0.94;83.81;100753.67;5253078;54;1138355;-84
2020/12/15 03:24:19;;;;;;;96.80;46.17;;;;;;;0.87;83.91;100748.29;5277900;54;1140301;-84
2020/12/15 03:29:26;;;;;;;105.57;48.53;;;;;;;0.82;84.05;100745.83;5282538;54;1138386;-84
2020/12/15 03:34:32;;;;;;;104.03;48.92;;;;;;;0.79;84.02;100740.72;5269177;55;1140316;-84
2020/12/15 03:39:38;;;;;;;101.83;48.03;;;;;;;0.75;84.13;100733.09;5293658;55;1140392;-84
2020/12/15 03:44:46;;;;;;;109.00;50.30;;;;;;;0.69;84.22;100738.89;5337487;54;1140318;-84
2020/12/15 03:49:53;;;;;;;106.13;49.73;;;;;;;0.71;84.19;100749.26;5275921;54;1140523;-85
2020/12/15 03:55:00;;;;;;;103.53;49.17;;;;;;;0.72;84.25;100754.86;5314318;55;1140495;-84
2020/12/15 04:00:08;;;;;;;103.17;44.80;;;;;;;0.74;84.27;100752.21;5349312;54;1140821;-84
2020/12/15 04:05:24;;;;;;;97.70;42.73;;;;;;;0.73;84.17;100737.50;5255667;55;1140616;-85
2020/12/15 04:10:31;;;;;;;116.60;51.40;;;;;;;0.64;84.46;100747.30;5294283;55;1138204;-85
2020/12/15 04:15:37;;;;;;;95.33;46.50;;;;;;;0.61;84.50;100759.10;5318886;55;1140481;-84
2020/12/15 04:20:44;;;;;;;100.00;47.60;;;;;;;0.64;84.37;100762.91;5273535;54;1138448;-84
2020/12/15 04:25:59;;;;;;;116.43;53.27;;;;;;;0.66;84.27;100770.67;5326708;54;1140368;-84
2020/12/15 04:31:05;;;;;;;104.85;54.55;;;;;;;0.62;84.31;100762.11;5243088;54;1140657;-84
2020/12/15 04:36:11;;;;;;;110.47;50.50;;;;;;;0.65;84.22;100772.42;5271583;54;1141008;-84
2020/12/15 04:41:17;;;;;;;105.07;48.47;;;;;;;0.65;84.17;100772.87;5260336;54;1140606;-84
2020/12/15 04:46:24;;;;;;;121.53;54.87;;;;;;;0.62;84.30;100762.56;5296294;54;1140447;-84
2020/12/15 04:51:52;;;;;;;124.13;55.60;;;;;;;0.62;84.31;100761.25;5257185;54;1140432;-84
2020/12/15 04:57:02;;;;;;;121.28;56.02;;;;;;;0.65;84.27;100761.16;5253526;54;1140485;-84
2020/12/15 05:02:10;;;;;;;147.13;58.87;;;;;;;0.60;84.42;100765.69;5256245;54;1140779;-84
2020/12/15 05:07:16;;;;;;;126.07;54.33;;;;;;;0.56;84.76;100777.94;5286632;54;1140270;-84
2020/12/15 05:12:28;;;;;;;;;;;;;;;0.52;84.88;100789.79;5255612;54;1140992;-84
2020/12/15 05:17:34;;;;;;;136.35;54.30;;;;;;;0.55;84.87;100776.23;5264370;54;971451;-84
2020/12/15 05:22:49;;;;;;;118.10;46.67;;;;;;;0.49;85.07;100787.28;5249118;54;1138250;-84
2020/12/15 05:28:02;;;;;;;131.37;52.98;;;;;;;0.48;85.55;100783.83;5253438;54;1140584;-84
2020/12/15 05:33:18;;;;;;;113.95;49.30;;;;;;;0.46;85.56;100775.70;5258115;54;1140436;-84
2020/12/15 05:38:34;;;;;;;132.00;52.07;;;;;;;0.45;85.58;100775.30;5271675;54;1140503;-84
2020/12/15 05:43:41;;;;;;;117.67;46.67;;;;;;;0.44;85.78;100767.08;5252279;54;1140441;-84
2020/12/15 05:48:51;;;;;;;113.80;49.03;;;;;;;0.45;85.66;100770.94;5300218;54;1140437;-84
2020/12/15 05:54:00;;;;;;;111.15;44.38;;;;;;;0.45;85.93;100767.48;5257409;54;1140336;-84
2020/12/15 05:59:20;;;;;;;122.17;48.83;;;;;;;0.44;86.30;100767.08;5316084;54;1140641;-84
2020/12/15 06:04:25;;;;;;;126.80;47.40;;;;;;;0.45;86.37;100785.70;5253395;54;1140635;-83
2020/12/15 06:09:32;;;;;;;81.85;33.30;;;;;;;0.51;86.21;100782.87;5251310;54;1140339;-84
2020/12/15 06:14:38;;;;;;;110.97;42.23;;;;;;;0.50;86.62;100783.33;5264453;54;1138407;-83
2020/12/15 06:19:44;;;;;;;110.28;46.48;;;;;;;0.49;86.76;100796.39;5255553;54;1140368;-84
2020/12/15 06:25:00;;;;;;;96.77;36.87;;;;;;;0.52;86.64;100796.30;5298314;54;1140289;-84
2020/12/15 06:30:07;;;;;;;101.90;42.38;;;;;;;0.50;87.04;100798.09;5258457;54;1139295;-85
2020/12/15 06:35:13;;;;;;;103.93;43.40;;;;;;;0.43;87.41;100813.52;5291210;54;1140281;-85
2020/12/15 06:40:18;;;;;;;86.63;33.73;;;;;;;0.43;87.31;100814.36;5306813;54;1140428;-85
2020/12/15 06:45:25;;;;;;;95.87;36.70;;;;;;;0.47;87.92;100815.09;5271419;54;1138231;-86
2020/12/15 06:50:41;;;;;;;109.87;46.23;;;;;;;0.48;87.66;100825.45;5310759;54;1138202;-85
2020/12/15 06:55:49;;;;;;;113.97;41.87;;;;;;;0.50;87.42;100833.22;5274042;54;1140787;-85
2020/12/15 07:00:54;;;;;;;112.57;44.97;;;;;;;0.50;87.59;100826.72;5267399;54;1140353;-85
2020/12/15 07:06:11;;;;;;;108.70;44.73;;;;;;;0.51;87.62;100830.58;5255799;55;1140588;-85
2020/12/15 07:11:21;;;;;;;112.00;45.03;;;;;;;0.52;88.14;100829.67;5256648;55;1141058;-85
2020/12/15 07:16:27;;;;;;;113.90;45.83;;;;;;;0.57;87.85;100838.65;5258822;54;1140870;-85
2020/12/15 07:21:33;;;;;;;119.90;47.80;;;;;;;0.62;87.63;100841.94;5262322;54;1140964;-85
2020/12/15 07:26:39;;;;;;;104.80;42.93;;;;;;;0.65;87.53;100838.80;5269037;55;1140581;-85
2020/12/15 07:31:45;;;;;;;137.80;54.73;;;;;;;0.69;87.76;100842.16;5266903;54;1140499;-85
2020/12/15 07:36:52;;;;;;;132.37;56.33;;;;;;;0.69;87.56;100842.16;5245382;54;1140795;-85
2020/12/15 07:42:02;;;;;;;131.23;54.67;;;;;;;0.72;87.71;100845.97;5249303;54;1140770;-85
2020/12/15 07:47:10;;;;;;;174.33;66.37;;;;;;;0.80;87.70;100847.86;5249867;54;1140394;-85
2020/12/15 07:52:15;;;;;;;133.63;54.23;;;;;;;0.82;87.85;100841.31;5243857;54;1140339;-85
2020/12/15 07:57:22;;;;;;;129.03;50.37;;;;;;;0.76;87.78;100841.08;5266587;54;1140337;-86
2020/12/15 08:02:28;;;;;;;117.20;46.63;;;;;;;0.80;87.82;100845.27;5240058;54;1140435;-86
2020/12/15 08:07:35;;;;;;;104.60;39.67;;;;;;;0.82;88.26;100835.66;5252815;54;1140369;-86
2020/12/15 08:12:42;;;;;;;85.72;32.90;;;;;;;0.83;88.31;100829.55;5243259;54;1140588;-85
2020/12/15 08:17:50;;;;;;;117.03;45.97;;;;;;;0.85;88.14;100824.30;5244401;54;1138603;-85
2020/12/15 08:23:11;;;;;;;118.97;46.63;;;;;;;0.82;88.39;100827.84;5299913;54;1148308;-85
2020/12/15 08:28:22;;;;;;;128.87;50.77;;;;;;;0.83;88.78;100818.28;5247715;54;1140381;-85
2020/12/15 08:33:31;;;;;;;88.20;31.93;;;;;;;0.88;88.43;100834.61;5240425;54;1140860;-85
2020/12/15 08:38:43;;;;;;;108.53;42.03;;;;;;;0.87;88.80;100822.05;5232740;54;1138557;-85
2020/12/15 08:43:52;;;;;;;110.33;43.07;;;;;;;0.95;88.40;100816.12;5243662;54;1140602;-85
2020/12/15 08:48:58;;;;;;;106.58;41.33;;;;;;;1.01;88.20;100820.28;5269557;54;1140604;-85
2020/12/15 08:54:03;;;;;;;74.53;26.97;;;;;;;0.96;88.32;100811.31;5242394;54;1140308;-86
2020/12/15 08:59:28;;;;;;;98.85;41.23;;;;;;;0.93;88.62;100810.11;5256900;54;1138386;-85
2020/12/15 09:04:30;;;;;;;98.75;40.55;;;;;;;0.95;88.48;100812.66;5251419;54;1138279;-85
2020/12/15 09:09:36;;;;;;;123.13;47.40;;;;;;;0.97;88.50;100822.12;5249798;54;1138524;-85
2020/12/15 09:14:41;;;;;;;103.60;43.60;;;;;;;1.08;88.13;100839.14;5241410;54;1140646;-85
2020/12/15 09:19:47;;;;;;;136.87;50.97;;;;;;;1.08;88.13;100839.14;5248616;54;1140797;-85
2020/12/15 09:24:54;;;;;;;116.07;46.63;;;;;;;1.14;87.98;100832.44;5269361;54;1140362;-85
2020/12/15 09:30:00;;;;;;;62.00;23.83;;;;;;;1.20;88.04;100835.70;5242571;54;1140580;-85
2020/12/15 09:35:07;;;;;;;99.23;43.87;;;;;;;1.28;87.73;100838.88;5275871;54;1141072;-85
2020/12/15 09:40:14;;;;;;;130.52;54.30;;;;;;;1.31;87.68;100831.41;5242193;54;1138302;-86
2020/12/15 09:45:19;;;;;;;88.10;37.87;;;;;;;1.31;87.56;100827.50;5277034;54;1140363;-85
2020/12/15 09:50:25;;;;;;;83.47;37.88;;;;;;;1.25;87.28;100817.28;5242401;54;1138602;-85
2020/12/15 09:55:30;;;;;;;78.60;36.17;;;;;;;1.28;87.45;100801.55;5236948;54;1138385;-85
2020/12/15 10:00:36;;;;;;;84.13;36.77;;;;;;;1.27;87.42;100777.25;5251216;54;1138502;-85
2020/12/15 10:05:43;;;;;;;92.90;37.43;;;;;;;1.33;87.47;100782.25;5292221;54;1138193;-85
2020/12/15 10:10:49;;;;;;;91.53;40.03;;;;;;;1.40;87.38;100782.42;5243403;54;1138694;-85
2020/12/15 10:15:54;;;;;;;98.30;45.47;;;;;;;1.52;87.38;100781.16;5249093;54;1138765;-85
2020/12/15 10:21:00;;;;;;;99.10;46.83;;;;;;;1.59;87.41;100780.45;5268977;54;1138303;-85
2020/12/15 10:26:06;;;;;;;83.12;36.15;;;;;;;1.64;87.04;100779.84;5245782;54;1138777;-85
2020/12/15 10:31:14;;;;;;;87.75;40.67;;;;;;;1.65;86.56;100782.40;5253150;54;1138382;-85
2020/12/15 10:36:22;;;;;;;143.97;65.43;;;;;;;1.70;86.53;100796.09;5241718;54;1138196;-85
2020/12/15 10:41:33;;;;;;;111.17;50.93;;;;;;;1.70;86.41;100780.91;5270958;54;1140444;-85
2020/12/15 10:46:40;;;;;;;86.17;41.00;;;;;;;1.72;86.56;100770.82;5271696;55;1140767;-86
2020/12/15 10:51:51;;;;;;;84.60;37.00;;;;;;;1.77;86.33;100765.45;5264481;54;1138295;-86
2020/12/15 10:56:56;;;;;;;74.43;33.97;;;;;;;1.90;86.57;100752.79;5271239;55;1138731;-86
2020/12/15 11:02:02;;;;;;;75.03;34.83;;;;;;;1.97;86.14;100761.64;5268118;54;1138724;-86
2020/12/15 11:07:07;;;;;;;84.03;39.17;;;;;;;2.05;85.97;100770.45;5262120;55;1138711;-85
2020/12/15 11:12:13;;;;;;;146.33;69.20;;;;;;;2.08;85.76;100765.13;5273794;54;1138276;-86
2020/12/15 11:17:18;;;;;;;83.95;41.60;;;;;;;2.14;85.70;100767.48;5264301;54;1140685;-85
2020/12/15 11:22:24;;;;;;;80.00;35.27;;;;;;;2.25;85.86;100780.98;5288390;54;1138230;-85
2020/12/15 11:27:29;;;;;;;81.43;37.43;;;;;;;2.36;85.44;100780.09;5260687;55;1138433;-85
2020/12/15 11:32:35;;;;;;;102.53;46.50;;;;;;;2.42;85.48;100774.64;5265207;55;1138710;-86
2020/12/15 11:37:59;;;;;;;;;;;;;;;;;;;;;
2020/12/15 11:43:09;;;;;;;81.40;39.83;;;;;;;2.67;85.45;100772.33;5255826;54;1140785;-84
2020/12/15 11:48:45;;;;;;;73.70;35.20;;;;;;;2.74;84.23;100773.80;5269312;54;1138277;-84
2020/12/15 11:54:20;;;;;;;70.77;34.60;;;;;;;2.78;83.89;100764.44;5291743;54;1138348;-85
2020/12/15 11:59:53;;;;;;;90.27;41.10;;;;;;;2.78;83.78;100755.30;5200549;54;1138657;-85
2020/12/15 12:05:17;;;;;;;141.85;52.45;;;;;;;2.79;84.34;100746.55;5218031;54;1139039;-84
2020/12/15 12:10:36;;;;;;;99.85;44.42;;;;;;;2.76;83.97;100730.16;5249002;54;1141051;-85
2020/12/15 12:15:58;;;;;;;120.53;53.40;;;;;;;2.71;83.84;100718.62;5169619;55;1138899;-85
2020/12/15 12:21:14;;;;;;;209.80;82.33;;;;;;;2.65;83.85;100714.95;5160706;55;1140535;-85
2020/12/15 12:26:23;;;;;;;79.27;37.77;;;;;;;2.63;84.09;100703.71;5194809;55;1140506;-86
2020/12/15 12:31:28;;;;;;;84.90;40.07;;;;;;;2.61;84.02;100708.60;5211392;55;1138586;-87
2020/12/15 12:36:34;;;;;;;118.13;55.30;;;;;;;2.59;84.28;100702.63;5207769;55;1138336;-85
2020/12/15 12:41:40;;;;;;;137.62;58.35;;;;;;;2.56;84.21;100694.45;5152810;55;1140518;-85
2020/12/15 12:46:50;;;;;;;131.90;56.40;;;;;;;2.57;84.45;100668.74;5139030;56;1140530;-85
2020/12/15 12:51:57;;;;;;;97.13;45.33;;;;;;;2.57;84.57;100654.84;5148385;56;1140456;-85
2020/12/15 12:57:02;;;;;;;95.23;48.03;;;;;;;2.59;84.60;100660.84;5111804;56;1138835;-86
2020/12/15 13:02:08;;;;;;;69.87;37.83;;;;;;;2.62;84.55;100681.13;5125174;56;1138680;-86
2020/12/15 13:07:14;;;;;;;72.20;32.45;;;;;;;2.64;84.52;100697.58;5121990;56;1138458;-85
2020/12/15 13:12:19;;;;;;;69.23;35.13;;;;;;;2.64;84.46;100708.02;5106378;56;1138334;-87
2020/12/15 13:17:25;;;;;;;72.70;34.13;;;;;;;2.64;84.38;100700.19;5123407;56;1138390;-85
2020/12/15 13:22:31;;;;;;;64.27;31.73;;;;;;;2.66;84.53;100700.12;5128767;56;1140453;-85
2020/12/15 13:27:36;;;;;;;92.40;39.30;;;;;;;2.68;84.49;100707.45;5135360;56;1139064;-85
2020/12/15 13:32:42;;;;;;;77.93;32.73;;;;;;;2.65;84.58;100695.36;5129263;56;1138414;-85
2020/12/15 13:37:47;;;;;;;78.50;36.30;;;;;;;2.68;84.55;100679.57;5111519;56;1138555;-85
2020/12/15 13:42:53;;;;;;;67.43;32.00;;;;;;;2.71;84.61;100683.82;5188551;55;1138263;-85
2020/12/15 13:47:59;;;;;;;66.73;33.17;;;;;;;2.73;84.66;100708.11;5239524;54;1138419;-85
2020/12/15 13:53:04;;;;;;;59.30;26.83;;;;;;;2.76;84.75;100715.34;5247617;54;1138760;-85
2020/12/15 13:58:10;;;;;;;59.58;29.77;;;;;;;2.80;84.72;100735.20;5263637;54;1138686;-85
2020/12/15 14:03:16;;;;;;;86.80;42.30;;;;;;;2.87;84.55;100729.27;5245902;54;1138230;-85
2020/12/15 14:08:22;;;;;;;64.00;33.10;;;;;;;2.89;84.62;100737.89;5237590;55;1138880;-85
2020/12/15 14:13:27;;;;;;;96.87;37.73;;;;;;;2.91;84.74;100746.48;5255554;54;1139231;-85
2020/12/15 14:18:33;;;;;;;82.40;39.80;;;;;;;2.95;84.49;100745.91;5186779;55;1138724;-85
2020/12/15 14:23:38;;;;;;;78.67;36.60;;;;;;;2.96;84.41;100759.36;5189864;54;1138670;-86
2020/12/15 14:28:44;;;;;;;112.40;48.35;;;;;;;3.00;84.40;100763.09;5184057;54;1138878;-85
2020/12/15 14:33:49;;;;;;;98.90;42.50;;;;;;;3.01;83.83;100747.81;5182269;55;1140753;-85
2020/12/15 14:39:26;;;;;;;132.47;54.73;;;;;;;3.02;83.93;100721.23;5186912;54;1138701;-86
2020/12/15 14:44:32;;;;;;;204.40;88.03;;;;;;;3.01;83.92;100717.77;5196573;55;1142910;-86
2020/12/15 14:49:38;;;;;;;145.23;62.87;;;;;;;2.97;83.81;100689.22;5190073;55;1140917;-86
2020/12/15 14:54:43;;;;;;;89.40;41.00;;;;;;;2.96;83.91;100681.84;5217104;54;1140814;-86
2020/12/15 14:59:49;;;;;;;61.57;29.43;;;;;;;2.97;83.73;100690.07;5289291;54;1140803;-85
2020/12/15 15:04:55;;;;;;;61.63;31.77;;;;;;;2.93;83.63;100693.72;5265038;54;1139238;-86
2020/12/15 15:10:01;;;;;;;80.23;33.17;;;;;;;2.89;83.84;100693.48;5261678;54;1138192;-86
2020/12/15 15:15:07;;;;;;;210.10;100.12;;;;;;;2.90;83.79;100691.27;5295731;55;1138361;-85
2020/12/15 15:20:12;;;;;;;77.70;35.52;;;;;;;2.96;83.80;100691.44;5271990;54;1144753;-86
2020/12/15 15:25:18;;;;;;;75.77;35.80;;;;;;;2.96;83.80;100691.44;5296880;55;1138387;-86
2020/12/15 15:30:23;;;;;;;70.43;34.33;;;;;;;2.91;83.81;100677.27;5336182;55;1138912;-86
2020/12/15 15:35:29;;;;;;;65.17;31.70;;;;;;;2.93;83.88;100671.97;5255974;55;1138121;-84
2020/12/15 15:40:35;;;;;;;70.33;31.90;;;;;;;2.96;83.92;100681.84;5275939;54;1140412;-84
2020/12/15 15:45:41;;;;;;;99.37;44.57;;;;;;;2.98;83.97;100700.06;5263150;54;1138584;-84
2020/12/15 15:50:46;;;;;;;69.50;31.73;;;;;;;2.99;84.03;100690.00;5226516;55;1138890;-84
2020/12/15 15:55:53;;;;;;;63.02;31.60;;;;;;;3.00;83.92;100695.63;5237359;54;1138393;-84
2020/12/15 16:01:01;;;;;;;88.97;39.17;;;;;;;3.02;83.94;100705.09;5229880;55;1140408;-84
2020/12/15 16:06:07;;;;;;;85.10;42.57;;;;;;;3.09;84.10;100714.34;5262535;54;1138621;-84
2020/12/15 16:11:16;;;;;;;112.30;55.13;;;;;;;3.15;84.08;100706.71;5262380;54;1138853;-84
2020/12/15 16:16:21;;;;;;;71.85;35.83;;;;;;;3.12;84.05;100706.38;5212098;55;1140756;-84
2020/12/15 16:21:27;;;;;;;79.53;41.77;;;;;;;3.10;83.78;100708.20;5234623;55;1138816;-84
2020/12/15 16:26:33;;;;;;;101.93;44.77;;;;;;;3.13;83.87;100718.53;5286241;54;1138434;-84
2020/12/15 16:31:53;;;;;;;94.00;47.93;;;;;;;3.17;83.90;100722.72;5238258;55;1142738;-84
2020/12/15 16:36:59;;;;;;;90.83;40.20;;;;;;;3.21;84.05;100713.45;5309155;55;1136384;-84
2020/12/15 16:42:05;;;;;;;278.97;128.33;;;;;;;3.18;83.96;100713.97;5253699;54;1138701;-84
2020/12/15 16:47:11;;;;;;;254.17;113.67;;;;;;;3.12;84.01;100724.67;5248298;55;1142569;-84
2020/12/15 16:52:17;;;;;;;189.30;71.20;;;;;;;3.13;83.98;100712.00;5244757;55;1142485;-83
2020/12/15 16:57:26;;;;;;;428.00;139.27;;;;;;;3.18;83.94;100706.12;5267656;55;1140348;-84
2020/12/15 17:02:32;;;;;;;271.13;97.60;;;;;;;3.24;83.83;100701.52;5291639;55;1144870;-84
2020/12/15 17:07:37;;;;;;;95.70;39.40;;;;;;;3.27;83.95;100698.32;5262557;55;1140343;-84
2020/12/15 17:12:43;;;;;;;78.67;31.47;;;;;;;3.24;83.95;100705.44;5237291;54;1138792;-84
2020/12/15 17:17:49;;;;;;;69.77;30.50;;;;;;;3.30;83.86;100701.27;5206327;54;1138255;-84
2020/12/15 17:22:57;;;;;;;163.67;67.73;;;;;;;3.35;83.70;100703.22;5257650;54;1140483;-84
2020/12/15 17:28:03;;;;;;;79.53;38.27;;;;;;;3.35;83.68;100702.77;5261427;55;1140432;-84
2020/12/15 17:33:08;;;;;;;81.03;41.70;;;;;;;3.33;83.69;100708.97;5335326;55;1138549;-84
2020/12/15 17:38:14;;;;;;;62.08;30.40;;;;;;;3.31;83.83;100709.04;5256786;55;1138659;-84
2020/12/15 17:43:20;;;;;;;69.70;29.73;;;;;;;3.32;83.62;100696.36;5250111;54;1138259;-84
2020/12/15 17:48:25;;;;;;;127.70;54.00;;;;;;;3.35;83.50;100696.23;5274836;54;1138235;-84
2020/12/15 17:58:55;;;;;;;172.37;64.60;;;;;;;3.41;83.49;100709.46;4875143;58;1140695;-84
2020/12/15 18:04:01;;;;;;;107.23;54.77;;;;;;;3.43;83.32;100712.86;4894510;58;1140524;-84
2020/12/15 18:09:07;;;;;;;102.47;47.48;;;;;;;3.47;83.32;100717.05;4884785;59;1142633;-84
2020/12/15 18:14:12;;;;;;;241.97;100.80;;;;;;;3.49;83.32;100716.52;4880178;58;1140484;-84
2020/12/15 18:19:18;;;;;;;138.33;61.60;;;;;;;3.47;83.26;100708.73;4903223;59;1142500;-84
2020/12/15 18:24:26;;;;;;;125.57;52.63;;;;;;;3.46;83.10;100712.73;4877325;59;1140469;-84
2020/12/15 18:29:31;;;;;;;100.60;46.20;;;;;;;3.48;83.02;100706.52;4942946;59;1138592;-84
2020/12/15 18:34:36;;;;;;;86.70;37.67;;;;;;;3.51;82.85;100708.16;4858405;58;1143272;-84
2020/12/15 18:39:42;;;;;;;156.97;69.03;;;;;;;3.51;82.92;100705.05;4848547;58;1138572;-84
2020/12/15 18:44:47;;;;;;;99.43;47.80;;;;;;;3.50;83.02;100710.38;4896930;59;1140475;-84
2020/12/15 18:49:53;;;;;;;91.57;42.97;;;;;;;3.45;82.61;100704.49;4946330;59;21488;-84
2020/12/15 18:54:58;;;;;;;73.30;33.38;;;;;;;3.44;82.77;100696.26;4983902;55;1134100;-84
2020/12/15 19:00:06;;;;;;;78.53;37.17;;;;;;;3.47;82.62;100709.20;5376163;55;21125;-84
2020/12/15 19:05:12;;;;;;;116.23;49.97;;;;;;;3.47;82.69;100704.81;5260954;54;1134346;-84
2020/12/15 19:10:17;;;;;;;84.67;36.77;;;;;;;3.45;82.54;100710.57;5276536;54;1140331;-84
2020/12/15 19:15:25;;;;;;;63.68;30.43;;;;;;;3.41;82.61;100698.55;5356734;54;1138384;-84
2020/12/15 19:20:30;;;;;;;119.23;46.70;;;;;;;3.39;82.45;100699.07;5328602;54;1138254;-84
2020/12/15 19:25:36;;;;;;;136.83;52.63;;;;;;;3.38;82.45;100697.83;5312243;55;1142712;-83
2020/12/15 19:30:45;;;;;;;105.03;44.47;;;;;;;3.38;82.45;100686.06;5258444;55;1140844;-83
2020/12/15 19:35:49;;;;;;;74.97;33.23;;;;;;;3.36;82.29;100688.74;5323202;55;1140353;-84
2020/12/15 19:40:55;;;;;;;189.43;60.30;;;;;;;3.37;82.26;100685.22;5292431;54;1138262;-83
2020/12/15 19:46:04;;;;;;;250.05;98.52;;;;;;;3.35;82.21;100691.45;5256835;55;1140351;-84
2020/12/15 19:51:11;;;;;;;162.10;66.90;;;;;;;3.27;82.19;100709.23;5394029;55;21397;-83
2020/12/15 19:56:28;;;;;;;211.67;95.00;;;;;;;3.26;82.25;100714.92;5370762;55;21208;-83
2020/12/15 20:02:05;;;;;;;188.78;86.70;;;;;;;3.25;82.45;100717.14;5270731;54;1136650;-84
2020/12/15 20:07:10;;;;;;;130.57;54.67;;;;;;;3.23;82.52;100726.81;5254146;54;1140788;-83
2020/12/15 20:12:17;;;;;;;111.97;47.53;;;;;;;3.21;82.53;100728.64;5295077;55;1140975;-84
2020/12/15 20:17:28;;;;;;;128.77;56.93;;;;;;;3.22;82.46;100732.09;5271045;54;1142519;-83
2020/12/15 20:22:34;;;;;;;266.23;86.63;;;;;;;3.22;82.58;100730.34;5263258;54;1140402;-84
2020/12/15 20:27:40;;;;;;;177.07;59.77;;;;;;;3.22;82.78;100729.03;5276984;54;1140303;-84
2020/12/15 20:32:45;;;;;;;163.65;61.58;;;;;;;3.19;82.87;100729.19;5293277;54;1140515;-84
2020/12/15 20:37:51;;;;;;;194.90;66.90;;;;;;;3.22;82.78;100732.95;5265294;54;1140342;-84
2020/12/15 20:42:56;;;;;;;219.97;83.77;;;;;;;3.24;82.72;100717.20;5338770;54;1138444;-83
2020/12/15 20:48:02;;;;;;;187.20;77.07;;;;;;;3.30;82.76;100709.95;5382619;55;21133;-83
2020/12/15 20:53:07;;;;;;;151.97;66.13;;;;;;;3.30;82.76;100699.50;5255074;55;1136249;-83
2020/12/15 20:58:14;;;;;;;162.70;73.50;;;;;;;3.32;82.70;100708.58;5297204;54;1140361;-83
2020/12/15 21:03:24;;;;;;;112.30;52.20;;;;;;;3.35;82.70;100712.38;5265785;54;1140467;-84
2020/12/15 21:08:29;;;;;;;112.80;47.53;;;;;;;3.32;82.75;100726.42;5252844;54;1140726;-84
2020/12/15 21:13:35;;;;;;;107.67;45.07;;;;;;;3.32;82.81;100732.11;5316928;54;1138365;-84
2020/12/15 21:18:41;;;;;;;89.67;40.23;;;;;;;3.36;82.71;100729.76;5356324;54;21144;-84
2020/12/15 21:23:47;;;;;;;80.37;37.10;;;;;;;3.42;82.68;100734.69;5278092;54;1136286;-84
2020/12/15 21:28:53;;;;;;;97.10;42.55;;;;;;;3.46;82.82;100733.19;5252238;54;1138193;-84
2020/12/15 21:34:01;;;;;;;140.53;59.77;;;;;;;3.45;82.82;100743.71;5299444;55;1138500;-84
2020/12/15 21:39:06;;;;;;;91.13;40.83;;;;;;;3.44;82.86;100745.94;5257988;54;1140456;-84
2020/12/15 21:44:11;;;;;;;66.70;31.63;;;;;;;3.46;82.70;100755.41;5288458;55;1138325;-84
2020/12/15 21:49:16;;;;;;;73.53;32.60;;;;;;;3.47;82.63;100747.95;5255971;54;1140597;-84
2020/12/15 21:54:22;;;;;;;170.00;68.45;;;;;;;3.52;82.56;100765.58;5258899;54;1140514;-85
2020/12/15 21:59:27;;;;;;;114.30;46.13;;;;;;;3.54;82.61;100744.14;5273602;55;1140750;-83
2020/12/15 22:04:33;;;;;;;96.77;38.57;;;;;;;3.54;82.75;100753.29;5277656;55;1140258;-83
2020/12/15 22:09:38;;;;;;;132.17;55.30;;;;;;;3.58;82.64;100737.01;5364623;55;21128;-83
2020/12/15 22:14:44;;;;;;;92.13;38.43;;;;;;;3.65;82.68;100738.90;5327764;55;1138348;-83
2020/12/15 22:19:50;;;;;;;78.83;37.47;;;;;;;3.67;82.62;100741.81;5247991;54;1138721;-83
2020/12/15 22:24:56;;;;;;;71.43;31.97;;;;;;;3.67;82.66;100744.42;5272013;55;1138685;-83
2020/12/15 22:30:05;;;;;;;73.90;35.67;;;;;;;3.69;82.43;100755.67;5244016;54;1138307;-83
2020/12/15 22:35:11;;;;;;;51.50;24.50;;;;;;;3.71;82.34;100754.30;5244963;55;1141049;-83
2020/12/15 22:40:18;;;;;;;82.85;35.28;;;;;;;3.67;82.19;100757.96;5253264;55;1138540;-83
2020/12/15 22:45:23;;;;;;;76.83;37.07;;;;;;;3.67;82.19;100764.04;5288026;55;1138229;-83
2020/12/15 22:50:29;;;;;;;77.50;37.65;;;;;;;3.67;82.10;100750.11;5315503;54;1140453;-83
2020/12/15 22:55:34;;;;;;;77.60;35.43;;;;;;;3.65;82.16;100761.12;5219407;54;1138925;-84
2020/12/15 23:00:40;;;;;;;78.87;36.00;;;;;;;3.60;82.25;100761.78;5253750;54;1138501;-83
2020/12/15 23:05:45;;;;;;;66.53;32.47;;;;;;;3.62;82.13;100760.80;5298323;54;1138280;-83